Pagina principale
METAR-TAF:

METAR-TAF

Aeroporti :

Aeroporto Internazionale di Honiara

Honiara, Guadalcanal, Isole Salomone

latitudine: 09-25S, longitudine: 160-03E, altezza: 8 m

Osservazione

Il bollettino è stato emesso 31 minuti fa, alle 13:00 UTC
Vento 3 kt da sud-est
Temperature 25°C
Umidità 94%
Pressione 1010 hPa
Visibilità 10 km o più
Poco nuvoloso ad un'altezza di 1500 ft
Nubi sparse ad un'altezza di 10000 ft
foschia

METAR: AGGH 191300Z 14003KT 9999 HZ FEW015 SCT100 25/24 Q1010

Ora: 00:31 (13:31 UTC)

Previsione

Il bollettino è stato emesso 2 ore e 21 minuti fa, alle 11:10 UTC
Previsione valida dal 19 alle 12 UTC al 20 alle 12 UTC
Vento 10 kt da est
Visibilità: 1009 m
Poco nuvoloso ad un'altezza di 1500 ft
Nubi sparse ad un'altezza di 2500 ft

TAF: AGGH 191110Z 1912/2012 09010KT 9999 FEW015 SCT025 T 25 24 23 26 Q 1010 1008 1007 1009

Osservazioni e previsioni meteorologiche di più di 4000 aeroporti (messaggi METAR e TAF).

Le stazioni disponibili sono rappresentate dai dischi gialli e rossi sulla carta.

Puntare il mouse per vedere il nome della stazione.

Clicca sopra per visualizzare le osservazioni e previsioni meteorologiche.

Per cambiare la mappa : fare clic sui pulsanti verdi con una croce nera per ingrandire, il pulsante verde con un trattino per diminuire, o sulla freccia verde per le mappe adiacenti.


METAR-TAF: